createdAt,value
2019-04-26T00:01:16.432Z,57.93
2019-04-26T00:03:48.304Z,58.17
2019-04-26T00:06:18.757Z,59.12
2019-04-26T00:08:58.901Z,59.12
2019-04-26T00:11:46.414Z,58.84
2019-04-26T00:14:30.869Z,59.08
2019-04-26T00:17:09.228Z,59.39
2019-04-26T00:19:40.231Z,59.08
2019-04-26T00:22:10.980Z,58.96
2019-04-26T00:24:42.547Z,58.52
2019-04-26T00:27:12.783Z,58.33
2019-04-26T00:29:42.959Z,58.03
2019-04-26T00:32:13.786Z,57.86
2019-04-26T00:34:43.991Z,58.11
2019-04-26T00:37:14.179Z,57.55
2019-04-26T00:39:44.307Z,57.89
2019-04-26T00:42:14.724Z,57.82
2019-04-26T00:44:45.197Z,58.01
2019-04-26T00:47:16.969Z,57.69
2019-04-26T00:49:47.687Z,57.44
2019-04-26T00:52:18.198Z,57.65
2019-04-26T00:54:48.747Z,57.43
2019-04-26T00:57:20.314Z,57.55
2019-04-26T00:59:51.272Z,57.95
2019-04-26T01:02:39.076Z,57.65
2019-04-26T01:05:09.203Z,57.82
2019-04-26T01:07:41.604Z,57.79
2019-04-26T01:10:11.829Z,57.59
2019-04-26T01:12:41.946Z,58.57
2019-04-26T01:15:12.214Z,58.21
2019-04-26T01:17:42.406Z,58.22
2019-04-26T01:20:13.554Z,58.14
2019-04-26T01:22:47.597Z,58.31
2019-04-26T01:25:43.062Z,59.21
2019-04-26T01:28:18.518Z,58.98
2019-04-26T01:30:50.612Z,59.11
2019-04-26T01:33:21.874Z,59.43
2019-04-26T01:35:52.766Z,59.93
2019-04-26T01:38:24.370Z,60.03
2019-04-26T01:40:57.287Z,59.36
2019-04-26T01:43:47.128Z,59.67
2019-04-26T01:46:23.388Z,60.45
2019-04-26T01:49:00.404Z,59.88
2019-04-26T01:51:59.566Z,59.18
2019-04-26T01:54:34.402Z,59.01
2019-04-26T01:57:06.454Z,59.60
2019-04-26T01:59:40.514Z,60.49
2019-04-26T02:02:30.450Z,60.38
2019-04-26T02:05:03.112Z,60.15
2019-04-26T02:07:39.923Z,59.56
2019-04-26T02:10:24.036Z,60.18
2019-04-26T02:12:55.841Z,59.92
2019-04-26T02:15:29.286Z,59.50
2019-04-26T02:18:01.286Z,59.96
2019-04-26T02:21:26.337Z,59.73
2019-04-26T02:24:04.767Z,59.50
2019-04-26T02:26:36.248Z,59.53
2019-04-26T02:29:10.839Z,59.24
2019-04-26T02:31:44.225Z,59.23
2019-04-26T02:34:15.937Z,59.29
2019-04-26T02:36:57.050Z,59.22
2019-04-26T02:39:23.535Z,59.01
2019-04-26T02:41:56.829Z,59.04
2019-04-26T02:44:39.951Z,58.79
2019-04-26T02:47:50.829Z,58.87
2019-04-26T02:50:33.254Z,59.08
2019-04-26T02:53:32.938Z,58.50
2019-04-26T02:56:30.294Z,58.21
2019-04-26T02:59:26.230Z,58.05
2019-04-26T03:01:59.270Z,58.24
2019-04-26T03:04:31.035Z,58.11
2019-04-26T03:07:07.859Z,58.67
2019-04-26T03:09:40.876Z,58.49
2019-04-26T03:12:15.318Z,58.92
2019-04-26T03:15:13.140Z,59.04
2019-04-26T03:17:50.898Z,59.14
2019-04-26T03:20:25.246Z,59.88
2019-04-26T03:23:56.312Z,58.98
2019-04-26T03:26:37.436Z,59.17
2019-04-26T03:29:43.783Z,59.32
2019-04-26T03:32:51.632Z,58.96
2019-04-26T03:35:41.272Z,58.61
2019-04-26T03:38:26.866Z,58.37
2019-04-26T03:41:44.301Z,58.27
2019-04-26T03:44:31.095Z,58.28
2019-04-26T03:47:04.896Z,58.24
2019-04-26T03:50:19.144Z,59.29
2019-04-26T03:53:14.325Z,59.46
2019-04-26T03:56:10.158Z,59.79
2019-04-26T03:59:18.287Z,61.12
2019-04-26T04:02:00.190Z,60.59
2019-04-26T04:04:44.561Z,60.36
2019-04-26T04:07:17.646Z,61.76
2019-04-26T04:09:52.301Z,62.00
2019-04-26T04:12:48.212Z,62.48
2019-04-26T04:15:26.814Z,62.44
2019-04-26T04:18:03.374Z,62.98
2019-04-26T04:21:15.832Z,63.30
2019-04-26T04:23:58.828Z,63.35
2019-04-26T04:26:44.395Z,63.11
2019-04-26T04:29:55.261Z,62.88
2019-04-26T04:33:16.552Z,63.32
2019-04-26T04:35:54.824Z,63.08
2019-04-26T04:39:12.235Z,63.12
2019-04-26T04:42:01.815Z,62.88
2019-04-26T04:45:35.361Z,63.06
2019-04-26T04:48:37.018Z,62.87
2019-04-26T04:51:32.429Z,62.79
2019-04-26T04:54:18.442Z,62.51
2019-04-26T04:57:09.528Z,62.69
2019-04-26T05:00:06.782Z,63.28
2019-04-26T05:03:27.562Z,63.52
2019-04-26T05:06:19.041Z,63.84
2019-04-26T05:09:14.360Z,64.62
2019-04-26T05:12:10.662Z,64.37
2019-04-26T05:15:02.848Z,64.24
2019-04-26T05:17:55.842Z,64.31
2019-04-26T05:20:33.330Z,64.56
2019-04-26T05:23:43.225Z,65.24
2019-04-26T05:26:56.829Z,64.88
2019-04-26T05:30:36.853Z,65.16
2019-04-26T05:33:44.359Z,65.53
2019-04-26T05:36:46.320Z,64.12
2019-04-26T05:39:49.140Z,63.08
2019-04-26T05:43:27.945Z,63.24
2019-04-26T05:46:27.194Z,62.71
2019-04-26T05:49:46.587Z,62.21
2019-04-26T05:53:18.618Z,61.48
2019-04-26T05:56:29.773Z,61.00
2019-04-26T05:59:23.272Z,60.71
2019-04-26T06:02:51.369Z,60.33
2019-04-26T06:05:56.879Z,59.83
2019-04-26T06:09:32.041Z,59.13
2019-04-26T06:12:33.856Z,58.74
2019-04-26T06:15:30.938Z,59.07
2019-04-26T06:18:43.446Z,57.84
2019-04-26T06:21:30.148Z,57.15
2019-04-26T06:24:20.791Z,57.39
2019-04-26T06:27:25.990Z,57.30
2019-04-26T06:30:10.979Z,57.17
2019-04-26T06:33:07.208Z,57.04
2019-04-26T06:35:41.733Z,56.30
2019-04-26T06:39:11.989Z,55.87
2019-04-26T06:42:15.715Z,55.26
2019-04-26T06:45:26.438Z,54.33
2019-04-26T06:48:06.043Z,54.40
2019-04-26T06:50:42.739Z,54.47
2019-04-26T06:53:28.543Z,54.33
2019-04-26T06:56:33.874Z,53.85
2019-04-26T06:59:17.411Z,53.97
2019-04-26T07:01:59.058Z,54.16
2019-04-26T07:04:59.225Z,53.65
2019-04-26T07:08:10.805Z,52.86
2019-04-26T07:11:08.245Z,52.41
2019-04-26T07:14:32.962Z,52.44
2019-04-26T07:17:13.248Z,52.20
2019-04-26T07:20:40.143Z,51.64
2019-04-26T07:23:57.279Z,52.32
2019-04-26T07:26:55.300Z,52.17
2019-04-26T07:30:02.310Z,50.59
2019-04-26T07:33:08.343Z,50.25
2019-04-26T07:35:58.950Z,49.89
2019-04-26T07:39:19.673Z,49.58
2019-04-26T07:42:24.698Z,49.74
2019-04-26T07:45:49.798Z,49.33
2019-04-26T07:48:49.494Z,49.34
2019-04-26T07:51:45.542Z,50.38
2019-04-26T07:54:45.998Z,48.71
2019-04-26T07:58:05.278Z,48.75
2019-04-26T08:00:45.051Z,48.83
2019-04-26T08:03:43.547Z,48.48
2019-04-26T08:06:26.042Z,48.24
2019-04-26T08:09:04.780Z,48.68
2019-04-26T08:11:45.010Z,48.50
2019-04-26T08:14:39.686Z,48.24
2019-04-26T08:18:01.577Z,49.03
2019-04-26T08:20:48.132Z,47.60
2019-04-26T08:23:39.183Z,48.40
2019-04-26T08:25:58.726Z,47.36
2019-04-26T08:28:32.434Z,47.58
2019-04-26T08:31:05.964Z,47.02
2019-04-26T08:33:48.636Z,46.88
2019-04-26T08:36:16.219Z,46.96
2019-04-26T08:38:48.821Z,46.80
2019-04-26T08:41:22.685Z,46.48
2019-04-26T08:44:08.625Z,46.98
2019-04-26T08:47:23.770Z,46.65
2019-04-26T08:49:56.025Z,46.17
2019-04-26T08:52:30.312Z,45.98
2019-04-26T08:55:05.013Z,44.98
2019-04-26T08:57:38.298Z,44.69
2019-04-26T09:00:19.258Z,44.69
2019-04-26T09:03:23.593Z,44.21
2019-04-26T09:06:07.940Z,44.47
2019-04-26T09:08:43.461Z,44.40
2019-04-26T09:11:25.403Z,44.71
2019-04-26T09:13:51.132Z,44.83
2019-04-26T09:16:21.786Z,44.08
2019-04-26T09:18:54.312Z,42.79
2019-04-26T09:21:53.341Z,42.99
2019-04-26T09:24:45.376Z,42.54
2019-04-26T09:27:34.917Z,41.22
2019-04-26T09:30:34.160Z,41.55
2019-04-26T09:33:27.575Z,40.87
2019-04-26T09:35:58.454Z,39.95
2019-04-26T09:38:28.605Z,39.96
2019-04-26T09:41:00.564Z,39.28
2019-04-26T09:43:58.885Z,39.45
2019-04-26T09:46:55.282Z,39.16
2019-04-26T09:49:42.306Z,37.87
2019-04-26T09:52:17.910Z,38.08
2019-04-26T09:54:48.078Z,38.53
2019-04-26T09:57:18.267Z,38.83
2019-04-26T09:59:48.462Z,37.66
2019-04-26T10:02:20.444Z,37.76
2019-04-26T10:04:50.603Z,38.39
2019-04-26T10:07:20.792Z,38.69
2019-04-26T10:09:51.809Z,38.91
2019-04-26T10:12:32.312Z,39.20
2019-04-26T10:15:22.472Z,39.12
2019-04-26T10:17:53.437Z,39.26
2019-04-26T10:20:23.799Z,39.58
2019-04-26T10:22:53.914Z,39.54
2019-04-26T10:25:24.084Z,39.62
2019-04-26T10:27:54.225Z,39.59
2019-04-26T10:30:24.371Z,39.60
2019-04-26T10:32:54.506Z,39.00
2019-04-26T10:35:24.648Z,38.72
2019-04-26T10:37:54.767Z,39.22
2019-04-26T10:40:34.987Z,38.87
2019-04-26T10:42:56.780Z,39.48
2019-04-26T10:45:27.872Z,38.49
2019-04-26T10:47:58.037Z,38.44
2019-04-26T10:50:28.894Z,38.26
2019-04-26T10:53:18.100Z,38.19
2019-04-26T10:56:09.944Z,37.67
2019-04-26T10:58:44.438Z,38.37
2019-04-26T11:01:15.679Z,38.18
2019-04-26T11:03:45.876Z,38.46
2019-04-26T11:06:16.108Z,38.86
2019-04-26T11:08:46.270Z,39.19
2019-04-26T11:11:16.456Z,39.27
2019-04-26T11:13:46.607Z,39.18
2019-04-26T11:16:16.732Z,39.52
2019-04-26T11:18:46.915Z,39.33
2019-04-26T11:21:20.805Z,39.68
2019-04-26T11:23:50.054Z,40.33
2019-04-26T11:26:20.310Z,40.36
2019-04-26T11:28:51.296Z,40.65
2019-04-26T11:31:23.359Z,40.28
2019-04-26T11:34:04.739Z,40.47
2019-04-26T11:36:26.931Z,41.24
2019-04-26T11:38:57.067Z,41.40
2019-04-26T11:41:27.340Z,40.75
2019-04-26T11:43:57.458Z,41.49
2019-04-26T11:46:30.061Z,41.43
2019-04-26T11:49:02.957Z,42.11
2019-04-26T11:51:31.227Z,42.08
2019-04-26T11:54:01.325Z,41.76
2019-04-26T18:45:09.844Z,53.58
2019-04-26T18:47:43.897Z,53.83
2019-04-26T18:50:13.851Z,53.50
2019-04-26T18:53:07.151Z,53.62
2019-04-26T18:55:38.259Z,53.84
2019-04-26T18:58:09.461Z,53.92
2019-04-26T19:00:40.923Z,53.81
2019-04-26T19:03:13.459Z,53.93
2019-04-26T19:05:43.160Z,54.01
2019-04-26T19:08:14.942Z,54.54
2019-04-26T19:10:58.061Z,54.61
2019-04-26T19:13:46.160Z,54.70
2019-04-26T19:16:33.962Z,54.60
2019-04-26T19:19:22.489Z,54.70
2019-04-26T19:21:54.672Z,55.30
2019-04-26T19:24:24.896Z,55.43
2019-04-26T19:26:55.016Z,56.00
2019-04-26T19:29:32.839Z,56.19
2019-04-26T19:32:01.518Z,55.91
2019-04-26T19:34:31.227Z,55.55
2019-04-26T19:37:03.354Z,55.14
2019-04-26T19:39:35.661Z,54.70
2019-04-26T19:42:06.249Z,54.50
2019-04-26T19:44:36.684Z,54.20
2019-04-26T19:47:44.199Z,53.98
2019-04-26T19:50:50.543Z,53.65
2019-04-26T19:53:43.078Z,53.75
2019-04-26T19:56:17.442Z,54.17
2019-04-26T19:58:50.665Z,54.14
2019-04-26T20:01:24.886Z,54.28
2019-04-26T20:03:55.262Z,54.14
2019-04-26T20:06:26.802Z,54.25
2019-04-26T20:08:58.007Z,54.09
2019-04-26T20:11:28.406Z,54.00
2019-04-26T20:13:58.619Z,54.21
2019-04-26T20:16:28.888Z,54.09
2019-04-26T20:18:59.194Z,54.33
2019-04-26T20:21:32.098Z,54.44
2019-04-26T20:24:01.349Z,54.61
2019-04-26T20:26:31.565Z,54.51
2019-04-26T20:29:01.701Z,54.98
2019-04-26T20:31:44.898Z,55.44
2019-04-26T20:34:14.423Z,55.53
2019-04-26T20:36:47.609Z,55.68
2019-04-26T20:39:16.519Z,55.90
2019-04-26T20:41:46.747Z,55.86
2019-04-26T20:44:16.943Z,55.92
2019-04-26T20:46:47.116Z,55.99
2019-04-26T20:49:19.305Z,55.99
2019-04-26T20:51:49.164Z,56.04
2019-04-26T20:54:19.375Z,56.00
2019-04-26T20:56:52.627Z,56.51
2019-04-26T20:59:23.656Z,56.38
2019-04-26T21:02:06.983Z,56.38
2019-04-26T21:04:36.698Z,56.38
2019-04-26T21:06:59.360Z,56.18
2019-04-26T21:09:29.648Z,56.17
2019-04-26T21:11:59.887Z,56.19
2019-04-26T21:14:31.606Z,56.45
2019-04-26T21:17:02.024Z,56.71
2019-04-26T21:19:32.818Z,56.26
2019-04-26T21:22:04.119Z,56.21
2019-04-26T21:24:36.947Z,56.02
2019-04-26T21:27:30.144Z,55.88
2019-04-26T21:30:18.998Z,55.56
2019-04-26T21:33:17.486Z,55.37
2019-04-26T21:36:02.036Z,55.38
2019-04-26T21:38:40.971Z,55.05
2019-04-26T21:41:14.417Z,55.03
2019-04-26T21:43:45.622Z,55.34
2019-04-26T21:46:19.221Z,55.27
2019-04-26T21:48:47.644Z,55.40
2019-04-26T21:51:17.777Z,55.21
2019-04-26T21:53:47.993Z,55.25
2019-04-26T21:56:18.131Z,55.32
2019-04-26T21:58:48.276Z,55.50
2019-04-26T22:01:21.341Z,55.44
2019-04-26T22:03:56.986Z,55.88
2019-04-26T22:06:27.500Z,55.90
2019-04-26T22:09:02.763Z,56.18
2019-04-26T22:11:34.073Z,56.20
2019-04-26T22:14:13.186Z,56.67
2019-04-26T22:16:49.724Z,56.99
2019-04-26T22:19:37.781Z,56.64
2019-04-26T22:22:15.382Z,57.00
2019-04-26T22:24:46.752Z,57.16
2019-04-26T22:27:17.492Z,57.12
2019-04-26T22:29:51.796Z,57.24
2019-04-26T22:32:20.508Z,57.15
2019-04-26T22:34:50.639Z,57.12
2019-04-26T22:37:29.560Z,57.18
2019-04-26T22:39:54.236Z,57.23
2019-04-26T22:42:25.093Z,57.36
2019-04-26T22:45:04.948Z,57.21
2019-04-26T22:47:41.066Z,57.48
2019-04-26T22:50:07.598Z,57.50
2019-04-26T22:52:37.717Z,57.72
2019-04-26T22:55:08.336Z,57.89
2019-04-26T22:57:38.430Z,58.01
2019-04-26T23:00:08.855Z,58.23
2019-04-26T23:02:40.598Z,58.33
2019-04-26T23:05:10.719Z,58.76
2019-04-26T23:07:40.827Z,58.96
2019-04-26T23:10:11.243Z,59.08
2019-04-26T23:13:04.482Z,59.36
2019-04-26T23:15:50.629Z,59.29
2019-04-26T23:18:42.995Z,59.78
2019-04-26T23:21:16.070Z,60.48
2019-04-26T23:23:46.188Z,59.54
2019-04-26T23:26:16.330Z,59.54
2019-04-26T23:28:46.458Z,59.13
2019-04-26T23:31:16.577Z,58.97
2019-04-26T23:33:46.700Z,58.57
2019-04-26T23:36:18.366Z,58.80
2019-04-26T23:38:48.946Z,58.63
2019-04-26T23:41:19.104Z,58.44
2019-04-26T23:43:49.302Z,58.69
2019-04-26T23:46:22.821Z,58.63
2019-04-26T23:48:51.326Z,58.79
2019-04-26T23:51:21.448Z,58.71
2019-04-26T23:53:56.355Z,58.47
2019-04-26T23:56:25.317Z,58.37
2019-04-26T23:58:55.708Z,58.24
